sensor_id;sensor_type;location;lat;lon;timestamp;P1;durP1;ratioP1;P2;durP2;ratioP2
55672;SDS011;41554;45.366;20.400;2022-07-04T00:00:26;10.75;;;9.57;;
55672;SDS011;41554;45.366;20.400;2022-07-04T00:02:52;18.95;;;10.68;;
55672;SDS011;41554;45.366;20.400;2022-07-04T00:05:19;13.13;;;9.25;;
55672;SDS011;41554;45.366;20.400;2022-07-04T00:07:46;17.42;;;10.30;;
55672;SDS011;41554;45.366;20.400;2022-07-04T00:10:13;12.10;;;10.25;;
55672;SDS011;41554;45.366;20.400;2022-07-04T00:12:39;24.88;;;11.15;;
55672;SDS011;41554;45.366;20.400;2022-07-04T00:15:06;16.83;;;12.73;;
55672;SDS011;41554;45.366;20.400;2022-07-04T00:17:32;20.48;;;11.15;;
55672;SDS011;41554;45.366;20.400;2022-07-04T00:19:58;11.82;;;9.10;;
55672;SDS011;41554;45.366;20.400;2022-07-04T00:22:24;11.32;;;10.02;;
55672;SDS011;41554;45.366;20.400;2022-07-04T00:24:51;15.30;;;9.95;;
55672;SDS011;41554;45.366;20.400;2022-07-04T00:27:17;14.85;;;10.25;;
55672;SDS011;41554;45.366;20.400;2022-07-04T00:29:43;9.80;;;8.80;;
55672;SDS011;41554;45.366;20.400;2022-07-04T00:32:09;23.45;;;12.20;;
55672;SDS011;41554;45.366;20.400;2022-07-04T00:34:35;24.83;;;11.63;;
55672;SDS011;41554;45.366;20.400;2022-07-04T00:37:01;19.02;;;11.05;;
55672;SDS011;41554;45.366;20.400;2022-07-04T00:39:28;19.58;;;10.95;;
55672;SDS011;41554;45.366;20.400;2022-07-04T00:41:54;25.17;;;11.15;;
55672;SDS011;41554;45.366;20.400;2022-07-04T00:44:20;29.95;;;9.98;;
55672;SDS011;41554;45.366;20.400;2022-07-04T00:46:46;30.58;;;12.77;;
55672;SDS011;41554;45.366;20.400;2022-07-04T00:49:13;20.77;;;11.25;;
55672;SDS011;41554;45.366;20.400;2022-07-04T00:51:40;17.17;;;10.90;;
55672;SDS011;41554;45.366;20.400;2022-07-04T00:54:07;13.15;;;11.38;;
55672;SDS011;41554;45.366;20.400;2022-07-04T00:56:37;19.55;;;11.43;;
55672;SDS011;41554;45.366;20.400;2022-07-04T01:01:29;18.70;;;12.55;;
55672;SDS011;41554;45.366;20.400;2022-07-04T01:03:55;21.95;;;12.93;;
55672;SDS011;41554;45.366;20.400;2022-07-04T01:06:21;19.17;;;13.13;;
55672;SDS011;41554;45.366;20.400;2022-07-04T01:08:47;12.65;;;10.20;;
55672;SDS011;41554;45.366;20.400;2022-07-04T01:11:13;13.63;;;11.20;;
55672;SDS011;41554;45.366;20.400;2022-07-04T01:13:40;11.70;;;10.50;;
55672;SDS011;41554;45.366;20.400;2022-07-04T01:16:06;20.98;;;10.60;;
55672;SDS011;41554;45.366;20.400;2022-07-04T01:18:33;18.42;;;11.80;;
55672;SDS011;41554;45.366;20.400;2022-07-04T01:20:59;15.68;;;12.10;;
55672;SDS011;41554;45.366;20.400;2022-07-04T01:23:25;20.77;;;12.00;;
55672;SDS011;41554;45.366;20.400;2022-07-04T01:25:51;14.90;;;10.90;;
55672;SDS011;41554;45.366;20.400;2022-07-04T01:28:20;19.50;;;12.93;;
55672;SDS011;41554;45.366;20.400;2022-07-04T01:30:47;15.27;;;11.35;;
55672;SDS011;41554;45.366;20.400;2022-07-04T01:33:13;19.48;;;12.00;;
55672;SDS011;41554;45.366;20.400;2022-07-04T01:35:40;16.90;;;10.88;;
55672;SDS011;41554;45.366;20.400;2022-07-04T01:38:06;18.33;;;11.05;;
55672;SDS011;41554;45.366;20.400;2022-07-04T01:40:32;15.88;;;11.30;;
55672;SDS011;41554;45.366;20.400;2022-07-04T01:42:58;13.35;;;10.68;;
55672;SDS011;41554;45.366;20.400;2022-07-04T01:45:27;16.00;;;12.32;;
55672;SDS011;41554;45.366;20.400;2022-07-04T01:47:53;19.70;;;10.88;;
55672;SDS011;41554;45.366;20.400;2022-07-04T01:50:19;15.80;;;12.25;;
55672;SDS011;41554;45.366;20.400;2022-07-04T01:52:46;16.52;;;11.25;;
55672;SDS011;41554;45.366;20.400;2022-07-04T01:55:13;20.08;;;12.38;;
55672;SDS011;41554;45.366;20.400;2022-07-04T01:57:39;14.82;;;10.45;;
55672;SDS011;41554;45.366;20.400;2022-07-04T02:00:05;19.65;;;11.98;;
55672;SDS011;41554;45.366;20.400;2022-07-04T02:02:51;16.25;;;11.60;;
55672;SDS011;41554;45.366;20.400;2022-07-04T02:05:17;16.02;;;10.48;;
55672;SDS011;41554;45.366;20.400;2022-07-04T02:07:43;16.40;;;12.10;;
55672;SDS011;41554;45.366;20.400;2022-07-04T02:10:09;18.80;;;13.88;;
55672;SDS011;41554;45.366;20.400;2022-07-04T02:12:36;20.27;;;12.52;;
55672;SDS011;41554;45.366;20.400;2022-07-04T02:15:20;20.40;;;13.45;;
55672;SDS011;41554;45.366;20.400;2022-07-04T02:17:47;16.95;;;12.65;;
55672;SDS011;41554;45.366;20.400;2022-07-04T02:20:14;18.48;;;13.65;;
55672;SDS011;41554;45.366;20.400;2022-07-04T02:22:40;18.08;;;11.73;;
55672;SDS011;41554;45.366;20.400;2022-07-04T02:25:06;15.73;;;13.70;;
55672;SDS011;41554;45.366;20.400;2022-07-04T02:27:32;16.27;;;12.18;;
55672;SDS011;41554;45.366;20.400;2022-07-04T02:29:58;18.88;;;13.10;;
55672;SDS011;41554;45.366;20.400;2022-07-04T02:32:24;20.65;;;13.57;;
55672;SDS011;41554;45.366;20.400;2022-07-04T02:34:50;18.90;;;12.45;;
55672;SDS011;41554;45.366;20.400;2022-07-04T02:37:16;15.40;;;12.20;;
55672;SDS011;41554;45.366;20.400;2022-07-04T02:39:43;14.50;;;13.00;;
55672;SDS011;41554;45.366;20.400;2022-07-04T02:42:09;18.90;;;13.10;;
55672;SDS011;41554;45.366;20.400;2022-07-04T02:44:35;15.82;;;11.50;;
55672;SDS011;41554;45.366;20.400;2022-07-04T02:47:01;17.45;;;12.10;;
55672;SDS011;41554;45.366;20.400;2022-07-04T02:49:27;19.83;;;11.63;;
55672;SDS011;41554;45.366;20.400;2022-07-04T02:51:53;17.63;;;12.05;;
55672;SDS011;41554;45.366;20.400;2022-07-04T02:54:19;17.98;;;13.07;;
55672;SDS011;41554;45.366;20.400;2022-07-04T02:56:45;15.15;;;13.38;;
55672;SDS011;41554;45.366;20.400;2022-07-04T02:59:11;24.08;;;12.95;;
55672;SDS011;41554;45.366;20.400;2022-07-04T03:01:37;16.25;;;12.60;;
55672;SDS011;41554;45.366;20.400;2022-07-04T03:04:03;17.40;;;12.10;;
55672;SDS011;41554;45.366;20.400;2022-07-04T03:06:30;16.80;;;13.27;;
55672;SDS011;41554;45.366;20.400;2022-07-04T03:08:56;25.95;;;14.45;;
55672;SDS011;41554;45.366;20.400;2022-07-04T03:11:22;13.25;;;11.77;;
55672;SDS011;41554;45.366;20.400;2022-07-04T03:13:48;16.95;;;11.48;;
55672;SDS011;41554;45.366;20.400;2022-07-04T03:16:14;15.15;;;11.73;;
55672;SDS011;41554;45.366;20.400;2022-07-04T03:18:40;20.77;;;11.02;;
55672;SDS011;41554;45.366;20.400;2022-07-04T03:21:07;19.90;;;12.25;;
55672;SDS011;41554;45.366;20.400;2022-07-04T03:23:33;17.70;;;12.43;;
55672;SDS011;41554;45.366;20.400;2022-07-04T03:25:59;20.38;;;13.40;;
55672;SDS011;41554;45.366;20.400;2022-07-04T03:28:26;20.35;;;12.93;;
55672;SDS011;41554;45.366;20.400;2022-07-04T03:30:52;18.20;;;13.55;;
55672;SDS011;41554;45.366;20.400;2022-07-04T03:33:18;20.65;;;14.23;;
55672;SDS011;41554;45.366;20.400;2022-07-04T03:35:45;15.15;;;10.73;;
55672;SDS011;41554;45.366;20.400;2022-07-04T03:38:11;20.02;;;14.80;;
55672;SDS011;41554;45.366;20.400;2022-07-04T03:40:37;17.63;;;12.45;;
55672;SDS011;41554;45.366;20.400;2022-07-04T03:43:03;19.80;;;12.18;;
55672;SDS011;41554;45.366;20.400;2022-07-04T03:45:31;20.10;;;12.60;;
55672;SDS011;41554;45.366;20.400;2022-07-04T03:47:57;16.70;;;14.27;;
55672;SDS011;41554;45.366;20.400;2022-07-04T03:50:23;19.33;;;13.88;;
55672;SDS011;41554;45.366;20.400;2022-07-04T03:52:50;20.33;;;13.95;;
55672;SDS011;41554;45.366;20.400;2022-07-04T03:55:16;17.60;;;12.82;;
55672;SDS011;41554;45.366;20.400;2022-07-04T03:57:42;19.02;;;13.60;;
55672;SDS011;41554;45.366;20.400;2022-07-04T04:00:08;22.42;;;13.43;;
55672;SDS011;41554;45.366;20.400;2022-07-04T04:02:35;16.73;;;13.13;;
55672;SDS011;41554;45.366;20.400;2022-07-04T04:05:02;20.05;;;13.43;;
55672;SDS011;41554;45.366;20.400;2022-07-04T04:07:47;17.40;;;11.68;;
55672;SDS011;41554;45.366;20.400;2022-07-04T04:10:13;16.42;;;12.82;;
55672;SDS011;41554;45.366;20.400;2022-07-04T04:12:39;17.67;;;13.10;;
55672;SDS011;41554;45.366;20.400;2022-07-04T04:15:05;13.60;;;11.38;;
55672;SDS011;41554;45.366;20.400;2022-07-04T04:17:32;15.90;;;12.57;;
55672;SDS011;41554;45.366;20.400;2022-07-04T04:19:58;18.70;;;12.05;;
55672;SDS011;41554;45.366;20.400;2022-07-04T04:22:24;16.17;;;12.75;;
55672;SDS011;41554;45.366;20.400;2022-07-04T04:24:50;14.15;;;11.63;;
55672;SDS011;41554;45.366;20.400;2022-07-04T04:27:16;15.93;;;13.02;;
55672;SDS011;41554;45.366;20.400;2022-07-04T04:29:42;17.73;;;10.60;;
55672;SDS011;41554;45.366;20.400;2022-07-04T04:32:08;19.48;;;13.60;;
55672;SDS011;41554;45.366;20.400;2022-07-04T04:34:34;18.60;;;13.18;;
55672;SDS011;41554;45.366;20.400;2022-07-04T04:36:59;23.40;;;13.95;;
55672;SDS011;41554;45.366;20.400;2022-07-04T04:39:25;20.55;;;12.98;;
55672;SDS011;41554;45.366;20.400;2022-07-04T04:41:51;15.13;;;11.35;;
55672;SDS011;41554;45.366;20.400;2022-07-04T04:44:18;18.98;;;13.45;;
55672;SDS011;41554;45.366;20.400;2022-07-04T04:46:44;18.02;;;13.73;;
55672;SDS011;41554;45.366;20.400;2022-07-04T04:49:10;20.60;;;13.55;;
55672;SDS011;41554;45.366;20.400;2022-07-04T04:51:36;17.33;;;13.00;;
55672;SDS011;41554;45.366;20.400;2022-07-04T04:54:03;19.52;;;14.57;;
55672;SDS011;41554;45.366;20.400;2022-07-04T04:56:29;17.52;;;12.85;;
55672;SDS011;41554;45.366;20.400;2022-07-04T04:58:55;20.92;;;12.95;;
55672;SDS011;41554;45.366;20.400;2022-07-04T05:01:21;17.48;;;12.90;;
55672;SDS011;41554;45.366;20.400;2022-07-04T05:03:46;17.00;;;12.45;;
55672;SDS011;41554;45.366;20.400;2022-07-04T05:06:12;20.60;;;14.88;;
55672;SDS011;41554;45.366;20.400;2022-07-04T05:08:38;13.88;;;11.18;;
55672;SDS011;41554;45.366;20.400;2022-07-04T05:11:04;20.67;;;12.43;;
55672;SDS011;41554;45.366;20.400;2022-07-04T05:13:30;15.43;;;11.35;;
55672;SDS011;41554;45.366;20.400;2022-07-04T05:15:55;17.55;;;13.05;;
55672;SDS011;41554;45.366;20.400;2022-07-04T05:18:21;14.32;;;12.35;;
55672;SDS011;41554;45.366;20.400;2022-07-04T05:20:47;15.50;;;11.23;;
55672;SDS011;41554;45.366;20.400;2022-07-04T05:23:13;19.67;;;12.70;;
55672;SDS011;41554;45.366;20.400;2022-07-04T05:25:39;15.27;;;10.77;;
55672;SDS011;41554;45.366;20.400;2022-07-04T05:28:05;13.90;;;10.70;;
55672;SDS011;41554;45.366;20.400;2022-07-04T05:30:31;17.30;;;12.45;;
55672;SDS011;41554;45.366;20.400;2022-07-04T05:32:57;14.05;;;11.02;;
55672;SDS011;41554;45.366;20.400;2022-07-04T05:35:25;16.73;;;10.63;;
55672;SDS011;41554;45.366;20.400;2022-07-04T05:37:52;11.77;;;9.80;;
55672;SDS011;41554;45.366;20.400;2022-07-04T05:40:18;15.02;;;10.50;;
55672;SDS011;41554;45.366;20.400;2022-07-04T05:42:46;10.05;;;8.27;;
55672;SDS011;41554;45.366;20.400;2022-07-04T05:45:13;12.82;;;7.35;;
55672;SDS011;41554;45.366;20.400;2022-07-04T05:47:39;9.10;;;7.95;;
55672;SDS011;41554;45.366;20.400;2022-07-04T05:50:06;14.68;;;8.18;;
55672;SDS011;41554;45.366;20.400;2022-07-04T05:52:32;12.93;;;8.00;;
55672;SDS011;41554;45.366;20.400;2022-07-04T05:54:58;19.92;;;8.95;;
55672;SDS011;41554;45.366;20.400;2022-07-04T05:57:24;11.05;;;8.13;;
55672;SDS011;41554;45.366;20.400;2022-07-04T05:59:50;18.25;;;9.60;;
55672;SDS011;41554;45.366;20.400;2022-07-04T06:02:16;11.35;;;8.48;;
55672;SDS011;41554;45.366;20.400;2022-07-04T06:04:41;14.40;;;9.20;;
55672;SDS011;41554;45.366;20.400;2022-07-04T06:07:08;13.63;;;8.73;;
55672;SDS011;41554;45.366;20.400;2022-07-04T06:09:34;10.52;;;6.93;;
55672;SDS011;41554;45.366;20.400;2022-07-04T06:12:01;13.52;;;6.80;;
55672;SDS011;41554;45.366;20.400;2022-07-04T06:14:27;13.20;;;7.32;;
55672;SDS011;41554;45.366;20.400;2022-07-04T06:16:53;10.50;;;8.27;;
55672;SDS011;41554;45.366;20.400;2022-07-04T06:19:19;8.20;;;7.15;;
55672;SDS011;41554;45.366;20.400;2022-07-04T06:21:44;12.23;;;10.27;;
55672;SDS011;41554;45.366;20.400;2022-07-04T06:24:10;11.45;;;8.60;;
55672;SDS011;41554;45.366;20.400;2022-07-04T06:26:36;9.10;;;8.20;;
55672;SDS011;41554;45.366;20.400;2022-07-04T06:29:01;10.55;;;8.57;;
55672;SDS011;41554;45.366;20.400;2022-07-04T06:31:28;11.45;;;6.63;;
55672;SDS011;41554;45.366;20.400;2022-07-04T06:33:53;12.40;;;6.68;;
55672;SDS011;41554;45.366;20.400;2022-07-04T06:36:38;10.65;;;7.13;;
55672;SDS011;41554;45.366;20.400;2022-07-04T06:39:03;11.48;;;6.35;;
55672;SDS011;41554;45.366;20.400;2022-07-04T06:41:29;12.25;;;6.28;;
55672;SDS011;41554;45.366;20.400;2022-07-04T06:43:55;10.27;;;7.13;;
55672;SDS011;41554;45.366;20.400;2022-07-04T06:46:21;15.10;;;8.43;;
55672;SDS011;41554;45.366;20.400;2022-07-04T06:48:47;12.32;;;7.60;;
55672;SDS011;41554;45.366;20.400;2022-07-04T06:51:13;12.43;;;7.20;;
55672;SDS011;41554;45.366;20.400;2022-07-04T06:53:42;11.15;;;7.65;;
55672;SDS011;41554;45.366;20.400;2022-07-04T06:56:10;17.42;;;7.57;;
55672;SDS011;41554;45.366;20.400;2022-07-04T06:58:36;10.85;;;7.40;;
55672;SDS011;41554;45.366;20.400;2022-07-04T07:01:02;16.23;;;8.13;;
55672;SDS011;41554;45.366;20.400;2022-07-04T07:03:28;8.95;;;6.50;;
55672;SDS011;41554;45.366;20.400;2022-07-04T07:05:54;10.75;;;8.00;;
55672;SDS011;41554;45.366;20.400;2022-07-04T07:08:21;13.68;;;6.97;;
55672;SDS011;41554;45.366;20.400;2022-07-04T07:10:47;13.25;;;8.27;;
55672;SDS011;41554;45.366;20.400;2022-07-04T07:13:13;11.82;;;5.97;;
55672;SDS011;41554;45.366;20.400;2022-07-04T07:15:39;24.30;;;6.90;;
55672;SDS011;41554;45.366;20.400;2022-07-04T07:18:05;17.70;;;7.68;;
55672;SDS011;41554;45.366;20.400;2022-07-04T07:20:31;9.57;;;6.47;;
55672;SDS011;41554;45.366;20.400;2022-07-04T07:22:57;7.82;;;5.97;;
55672;SDS011;41554;45.366;20.400;2022-07-04T07:25:23;8.20;;;6.05;;
55672;SDS011;41554;45.366;20.400;2022-07-04T07:27:49;8.18;;;6.45;;
55672;SDS011;41554;45.366;20.400;2022-07-04T07:30:15;16.70;;;8.77;;
55672;SDS011;41554;45.366;20.400;2022-07-04T07:32:41;10.00;;;8.27;;
55672;SDS011;41554;45.366;20.400;2022-07-04T07:35:07;9.55;;;7.47;;
55672;SDS011;41554;45.366;20.400;2022-07-04T07:37:33;9.60;;;6.88;;
55672;SDS011;41554;45.366;20.400;2022-07-04T07:40:00;10.13;;;6.22;;
55672;SDS011;41554;45.366;20.400;2022-07-04T07:42:27;13.43;;;7.57;;
55672;SDS011;41554;45.366;20.400;2022-07-04T07:44:53;19.95;;;6.63;;
55672;SDS011;41554;45.366;20.400;2022-07-04T07:47:19;11.75;;;7.25;;
55672;SDS011;41554;45.366;20.400;2022-07-04T07:49:45;9.52;;;6.03;;
55672;SDS011;41554;45.366;20.400;2022-07-04T07:52:12;12.35;;;5.65;;
55672;SDS011;41554;45.366;20.400;2022-07-04T07:54:39;10.65;;;7.28;;
55672;SDS011;41554;45.366;20.400;2022-07-04T07:57:05;10.98;;;7.35;;
55672;SDS011;41554;45.366;20.400;2022-07-04T07:59:31;10.77;;;7.38;;
55672;SDS011;41554;45.366;20.400;2022-07-04T08:01:57;7.22;;;6.47;;
55672;SDS011;41554;45.366;20.400;2022-07-04T08:04:23;6.53;;;5.70;;
55672;SDS011;41554;45.366;20.400;2022-07-04T08:07:09;11.40;;;5.80;;
55672;SDS011;41554;45.366;20.400;2022-07-04T08:09:37;9.43;;;6.60;;
55672;SDS011;41554;45.366;20.400;2022-07-04T08:12:03;6.22;;;5.43;;
55672;SDS011;41554;45.366;20.400;2022-07-04T08:14:30;10.23;;;6.32;;
55672;SDS011;41554;45.366;20.400;2022-07-04T08:16:57;6.53;;;5.38;;
55672;SDS011;41554;45.366;20.400;2022-07-04T08:19:23;12.05;;;6.68;;
55672;SDS011;41554;45.366;20.400;2022-07-04T08:21:50;8.25;;;4.40;;
55672;SDS011;41554;45.366;20.400;2022-07-04T08:24:16;6.95;;;5.25;;
55672;SDS011;41554;45.366;20.400;2022-07-04T08:26:42;8.23;;;5.63;;
55672;SDS011;41554;45.366;20.400;2022-07-04T08:29:09;7.10;;;4.80;;
55672;SDS011;41554;45.366;20.400;2022-07-04T08:31:44;6.15;;;5.20;;
55672;SDS011;41554;45.366;20.400;2022-07-04T08:34:10;6.13;;;5.53;;
55672;SDS011;41554;45.366;20.400;2022-07-04T08:36:36;5.10;;;3.80;;
55672;SDS011;41554;45.366;20.400;2022-07-04T08:39:02;6.43;;;4.88;;
55672;SDS011;41554;45.366;20.400;2022-07-04T08:41:29;10.55;;;6.03;;
55672;SDS011;41554;45.366;20.400;2022-07-04T08:43:59;7.20;;;4.60;;
55672;SDS011;41554;45.366;20.400;2022-07-04T08:46:26;5.57;;;4.45;;
55672;SDS011;41554;45.366;20.400;2022-07-04T08:48:53;5.65;;;4.43;;
55672;SDS011;41554;45.366;20.400;2022-07-04T08:51:43;10.35;;;4.95;;
55672;SDS011;41554;45.366;20.400;2022-07-04T08:54:09;6.57;;;4.57;;
55672;SDS011;41554;45.366;20.400;2022-07-04T08:56:55;6.63;;;4.80;;
55672;SDS011;41554;45.366;20.400;2022-07-04T08:59:50;5.32;;;4.55;;
55672;SDS011;41554;45.366;20.400;2022-07-04T09:02:19;6.13;;;4.50;;
55672;SDS011;41554;45.366;20.400;2022-07-04T09:04:45;4.53;;;4.05;;
55672;SDS011;41554;45.366;20.400;2022-07-04T09:07:12;4.60;;;3.97;;
55672;SDS011;41554;45.366;20.400;2022-07-04T09:09:41;5.70;;;4.45;;
55672;SDS011;41554;45.366;20.400;2022-07-04T09:12:10;7.82;;;4.68;;
55672;SDS011;41554;45.366;20.400;2022-07-04T09:14:37;4.88;;;3.60;;
55672;SDS011;41554;45.366;20.400;2022-07-04T09:17:03;12.95;;;5.32;;
55672;SDS011;41554;45.366;20.400;2022-07-04T09:19:30;5.55;;;4.43;;
55672;SDS011;41554;45.366;20.400;2022-07-04T09:22:02;16.00;;;4.57;;
55672;SDS011;41554;45.366;20.400;2022-07-04T09:24:48;14.35;;;6.07;;
55672;SDS011;41554;45.366;20.400;2022-07-04T09:27:29;5.07;;;3.65;;
55672;SDS011;41554;45.366;20.400;2022-07-04T09:29:59;6.10;;;4.57;;
55672;SDS011;41554;45.366;20.400;2022-07-04T09:32:41;9.70;;;5.30;;
55672;SDS011;41554;45.366;20.400;2022-07-04T09:35:09;8.13;;;4.88;;
55672;SDS011;41554;45.366;20.400;2022-07-04T09:37:50;6.70;;;4.55;;
55672;SDS011;41554;45.366;20.400;2022-07-04T09:42:49;5.88;;;4.65;;
55672;SDS011;41554;45.366;20.400;2022-07-04T09:45:15;7.82;;;4.38;;
55672;SDS011;41554;45.366;20.400;2022-07-04T09:47:43;7.20;;;5.05;;
55672;SDS011;41554;45.366;20.400;2022-07-04T09:50:13;7.88;;;4.47;;
55672;SDS011;41554;45.366;20.400;2022-07-04T09:55:09;5.38;;;4.43;;
55672;SDS011;41554;45.366;20.400;2022-07-04T09:57:35;5.43;;;4.35;;
55672;SDS011;41554;45.366;20.400;2022-07-04T10:02:42;11.13;;;3.58;;
55672;SDS011;41554;45.366;20.400;2022-07-04T10:05:09;10.85;;;4.65;;
55672;SDS011;41554;45.366;20.400;2022-07-04T10:07:36;9.98;;;3.78;;
55672;SDS011;41554;45.366;20.400;2022-07-04T10:13:00;5.85;;;3.97;;
55672;SDS011;41554;45.366;20.400;2022-07-04T10:15:35;7.38;;;4.32;;
55672;SDS011;41554;45.366;20.400;2022-07-04T10:18:03;8.52;;;4.30;;
55672;SDS011;41554;45.366;20.400;2022-07-04T10:20:29;9.18;;;5.43;;
55672;SDS011;41554;45.366;20.400;2022-07-04T10:22:55;5.88;;;5.28;;
55672;SDS011;41554;45.366;20.400;2022-07-04T10:25:22;7.75;;;5.57;;
55672;SDS011;41554;45.366;20.400;2022-07-04T10:27:48;7.30;;;5.45;;
55672;SDS011;41554;45.366;20.400;2022-07-04T10:30:17;5.00;;;3.78;;
55672;SDS011;41554;45.366;20.400;2022-07-04T10:32:48;6.22;;;3.63;;
55672;SDS011;41554;45.366;20.400;2022-07-04T10:35:48;7.88;;;3.97;;
55672;SDS011;41554;45.366;20.400;2022-07-04T10:38:14;4.10;;;3.40;;
55672;SDS011;41554;45.366;20.400;2022-07-04T10:40:48;6.22;;;4.50;;
55672;SDS011;41554;45.366;20.400;2022-07-04T10:51:39;3.95;;;3.40;;
55672;SDS011;41554;45.366;20.400;2022-07-04T10:56:57;7.22;;;4.30;;
55672;SDS011;41554;45.366;20.400;2022-07-04T10:59:27;6.50;;;3.80;;
55672;SDS011;41554;45.366;20.400;2022-07-04T11:07:24;6.40;;;4.53;;
55672;SDS011;41554;45.366;20.400;2022-07-04T11:16:04;5.70;;;4.15;;
55672;SDS011;41554;45.366;20.400;2022-07-04T11:18:13;7.78;;;5.13;;
55672;SDS011;41554;45.366;20.400;2022-07-04T11:20:43;5.60;;;4.15;;
55672;SDS011;41554;45.366;20.400;2022-07-04T11:23:16;8.18;;;4.60;;
55672;SDS011;41554;45.366;20.400;2022-07-04T11:25:45;4.00;;;3.15;;
55672;SDS011;41554;45.366;20.400;2022-07-04T11:28:23;5.13;;;4.40;;
55672;SDS011;41554;45.366;20.400;2022-07-04T11:30:51;7.07;;;4.53;;
55672;SDS011;41554;45.366;20.400;2022-07-04T11:33:19;10.65;;;4.97;;
55672;SDS011;41554;45.366;20.400;2022-07-04T11:41:16;6.68;;;4.47;;
55672;SDS011;41554;45.366;20.400;2022-07-04T11:44:05;5.57;;;4.47;;
55672;SDS011;41554;45.366;20.400;2022-07-04T11:46:50;8.82;;;5.50;;
55672;SDS011;41554;45.366;20.400;2022-07-04T11:49:16;6.07;;;3.67;;
55672;SDS011;41554;45.366;20.400;2022-07-04T11:51:42;8.73;;;5.65;;
55672;SDS011;41554;45.366;20.400;2022-07-04T11:54:11;6.55;;;5.13;;
55672;SDS011;41554;45.366;20.400;2022-07-04T11:56:37;5.90;;;4.45;;
55672;SDS011;41554;45.366;20.400;2022-07-04T11:59:11;5.40;;;4.15;;
55672;SDS011;41554;45.366;20.400;2022-07-04T12:01:41;4.97;;;4.45;;
55672;SDS011;41554;45.366;20.400;2022-07-04T12:04:26;10.75;;;4.90;;
55672;SDS011;41554;45.366;20.400;2022-07-04T12:06:52;8.85;;;5.13;;
55672;SDS011;41554;45.366;20.400;2022-07-04T12:09:17;7.35;;;4.65;;
55672;SDS011;41554;45.366;20.400;2022-07-04T12:12:01;4.47;;;3.78;;
55672;SDS011;41554;45.366;20.400;2022-07-04T12:14:35;4.93;;;4.03;;
55672;SDS011;41554;45.366;20.400;2022-07-04T12:17:11;8.70;;;4.82;;
55672;SDS011;41554;45.366;20.400;2022-07-04T12:24:53;8.32;;;4.90;;
55672;SDS011;41554;45.366;20.400;2022-07-04T12:27:19;8.85;;;5.43;;
55672;SDS011;41554;45.366;20.400;2022-07-04T12:29:48;10.88;;;4.82;;
55672;SDS011;41554;45.366;20.400;2022-07-04T12:32:14;7.25;;;5.13;;
55672;SDS011;41554;45.366;20.400;2022-07-04T12:34:40;10.98;;;4.78;;
55672;SDS011;41554;45.366;20.400;2022-07-04T12:37:07;9.57;;;5.32;;
55672;SDS011;41554;45.366;20.400;2022-07-04T12:39:34;5.65;;;4.20;;
55672;SDS011;41554;45.366;20.400;2022-07-04T12:42:08;5.50;;;4.25;;
55672;SDS011;41554;45.366;20.400;2022-07-04T12:44:42;4.13;;;3.50;;
55672;SDS011;41554;45.366;20.400;2022-07-04T12:47:10;6.40;;;4.75;;
55672;SDS011;41554;45.366;20.400;2022-07-04T12:49:36;7.47;;;4.30;;
55672;SDS011;41554;45.366;20.400;2022-07-04T12:52:10;8.65;;;4.38;;
55672;SDS011;41554;45.366;20.400;2022-07-04T12:54:38;9.38;;;4.72;;
55672;SDS011;41554;45.366;20.400;2022-07-04T12:57:08;7.75;;;5.97;;
55672;SDS011;41554;45.366;20.400;2022-07-04T12:59:37;8.45;;;4.75;;
55672;SDS011;41554;45.366;20.400;2022-07-04T13:02:03;5.22;;;4.00;;
55672;SDS011;41554;45.366;20.400;2022-07-04T13:04:29;8.57;;;4.40;;
55672;SDS011;41554;45.366;20.400;2022-07-04T13:06:57;6.25;;;5.00;;
55672;SDS011;41554;45.366;20.400;2022-07-04T13:09:24;7.57;;;4.50;;
55672;SDS011;41554;45.366;20.400;2022-07-04T13:11:50;4.50;;;3.83;;
55672;SDS011;41554;45.366;20.400;2022-07-04T13:14:34;5.50;;;3.45;;
55672;SDS011;41554;45.366;20.400;2022-07-04T13:16:59;7.22;;;3.80;;
55672;SDS011;41554;45.366;20.400;2022-07-04T13:19:25;4.63;;;3.72;;
55672;SDS011;41554;45.366;20.400;2022-07-04T13:21:51;4.50;;;3.38;;
55672;SDS011;41554;45.366;20.400;2022-07-04T13:24:19;5.78;;;3.83;;
55672;SDS011;41554;45.366;20.400;2022-07-04T13:26:46;4.50;;;3.33;;
55672;SDS011;41554;45.366;20.400;2022-07-04T13:29:12;12.50;;;3.92;;
55672;SDS011;41554;45.366;20.400;2022-07-04T13:31:38;4.75;;;3.45;;
55672;SDS011;41554;45.366;20.400;2022-07-04T13:34:05;8.52;;;4.20;;
55672;SDS011;41554;45.366;20.400;2022-07-04T13:36:30;9.95;;;3.88;;
55672;SDS011;41554;45.366;20.400;2022-07-04T13:38:56;5.63;;;3.72;;
55672;SDS011;41554;45.366;20.400;2022-07-04T13:41:22;5.28;;;2.95;;
55672;SDS011;41554;45.366;20.400;2022-07-04T13:43:47;6.75;;;4.07;;
55672;SDS011;41554;45.366;20.400;2022-07-04T13:46:13;3.17;;;2.67;;
55672;SDS011;41554;45.366;20.400;2022-07-04T13:48:39;6.10;;;3.40;;
55672;SDS011;41554;45.366;20.400;2022-07-04T13:51:05;6.18;;;2.90;;
55672;SDS011;41554;45.366;20.400;2022-07-04T13:53:30;3.88;;;2.63;;
55672;SDS011;41554;45.366;20.400;2022-07-04T13:55:58;4.00;;;3.13;;
55672;SDS011;41554;45.366;20.400;2022-07-04T13:58:24;8.60;;;2.80;;
55672;SDS011;41554;45.366;20.400;2022-07-04T14:00:49;3.35;;;2.60;;
55672;SDS011;41554;45.366;20.400;2022-07-04T14:03:15;6.22;;;2.10;;
55672;SDS011;41554;45.366;20.400;2022-07-04T14:05:41;3.67;;;2.75;;
55672;SDS011;41554;45.366;20.400;2022-07-04T14:08:07;8.88;;;3.42;;
55672;SDS011;41554;45.366;20.400;2022-07-04T14:10:33;5.10;;;3.45;;
55672;SDS011;41554;45.366;20.400;2022-07-04T14:12:59;4.13;;;3.10;;
55672;SDS011;41554;45.366;20.400;2022-07-04T14:15:26;4.13;;;2.17;;
55672;SDS011;41554;45.366;20.400;2022-07-04T14:17:51;5.63;;;3.10;;
55672;SDS011;41554;45.366;20.400;2022-07-04T14:20:17;7.40;;;3.35;;
55672;SDS011;41554;45.366;20.400;2022-07-04T14:22:44;6.03;;;2.92;;
55672;SDS011;41554;45.366;20.400;2022-07-04T14:25:10;9.63;;;3.83;;
55672;SDS011;41554;45.366;20.400;2022-07-04T14:27:36;4.25;;;3.45;;
55672;SDS011;41554;45.366;20.400;2022-07-04T14:30:02;3.15;;;2.60;;
55672;SDS011;41554;45.366;20.400;2022-07-04T14:32:29;5.03;;;2.97;;
55672;SDS011;41554;45.366;20.400;2022-07-04T14:34:55;2.40;;;2.20;;
55672;SDS011;41554;45.366;20.400;2022-07-04T14:37:20;3.35;;;2.03;;
55672;SDS011;41554;45.366;20.400;2022-07-04T14:39:46;3.22;;;2.75;;
55672;SDS011;41554;45.366;20.400;2022-07-04T14:42:12;4.63;;;2.13;;
55672;SDS011;41554;45.366;20.400;2022-07-04T14:44:38;5.07;;;2.33;;
55672;SDS011;41554;45.366;20.400;2022-07-04T14:47:04;4.57;;;2.33;;
55672;SDS011;41554;45.366;20.400;2022-07-04T14:49:30;3.35;;;2.67;;
55672;SDS011;41554;45.366;20.400;2022-07-04T14:51:56;2.47;;;1.77;;
55672;SDS011;41554;45.366;20.400;2022-07-04T14:54:24;3.50;;;2.75;;
55672;SDS011;41554;45.366;20.400;2022-07-04T14:56:50;2.92;;;1.80;;
55672;SDS011;41554;45.366;20.400;2022-07-04T14:59:16;3.63;;;1.98;;
55672;SDS011;41554;45.366;20.400;2022-07-04T15:01:42;3.17;;;2.45;;
55672;SDS011;41554;45.366;20.400;2022-07-04T15:04:08;2.95;;;2.60;;
55672;SDS011;41554;45.366;20.400;2022-07-04T15:06:33;8.65;;;2.13;;
55672;SDS011;41554;45.366;20.400;2022-07-04T15:08:59;12.57;;;2.28;;
55672;SDS011;41554;45.366;20.400;2022-07-04T15:11:28;2.35;;;1.95;;